Time;durP1;ratioP1;P1;durP2;ratioP2;P2;SDS_P1;SDS_P2;PMS_P1;PMS_P2;Temp;Humidity;BMP_temperature;BMP_pressure;BME280_temperature;BME280_humidity;BME280_pressure;Samples;Min_cycle;Max_cycle;Signal;HPM_P1;HPM_P2
2023/12/18 00:01:44;;;;;;;4.37;3.17;;;7.30;99.90;;;;;;5032262;28;20185;-71
2023/12/18 00:04:12;;;;;;;4.57;3.17;;;7.30;99.90;;;;;;5033904;28;20332;-66
2023/12/18 00:06:37;;;;;;;3.60;2.80;;;7.30;99.90;;;;;;5023782;28;20201;-70
2023/12/18 00:09:03;;;;;;;5.17;2.90;;;7.20;99.90;;;;;;5027414;28;20261;-67
2023/12/18 00:11:28;;;;;;;5.47;3.50;;;7.30;99.90;;;;;;5025343;28;20309;-70
2023/12/18 00:13:54;;;;;;;4.37;2.83;;;7.20;99.90;;;;;;5029815;28;20503;-68
2023/12/18 00:16:24;;;;;;;5.40;3.13;;;7.20;99.90;;;;;;5033923;28;20243;-71
2023/12/18 00:18:50;;;;;;;4.23;3.07;;;7.20;99.90;;;;;;5030032;28;20246;-71
2023/12/18 00:21:20;;;;;;;5.50;3.50;;;7.10;99.90;;;;;;5033819;28;20228;-70
2023/12/18 00:23:46;;;;;;;5.33;4.07;;;7.10;99.90;;;;;;5026638;28;20237;-69
2023/12/18 00:26:11;;;;;;;4.77;3.53;;;7.10;99.90;;;;;;5022001;28;20213;-71
2023/12/18 00:28:37;;;;;;;6.70;3.93;;;7.00;99.90;;;;;;5027911;28;20219;-69
2023/12/18 00:31:05;;;;;;;7.30;4.50;;;7.00;99.90;;;;;;5035231;28;20225;-71
2023/12/18 00:33:32;;;;;;;7.40;4.00;;;6.90;99.90;;;;;;5032394;28;20178;-71
2023/12/18 00:35:58;;;;;;;5.70;3.87;;;6.90;99.90;;;;;;5029698;28;20402;-69
2023/12/18 00:38:24;;;;;;;7.40;3.73;;;6.90;99.90;;;;;;5027356;28;20435;-72
2023/12/18 00:40:49;;;;;;;5.50;3.57;;;6.80;99.90;;;;;;5028502;28;20196;-71
2023/12/18 00:43:15;;;;;;;6.63;3.73;;;6.80;99.90;;;;;;5029583;28;20214;-72
2023/12/18 00:45:40;;;;;;;5.53;3.80;;;6.80;99.90;;;;;;5032273;28;20269;-71
2023/12/18 00:48:06;;;;;;;6.53;3.63;;;6.80;99.90;;;;;;5024842;28;20209;-72
2023/12/18 00:50:34;;;;;;;5.60;3.90;;;6.70;99.90;;;;;;5026353;28;20174;-71
2023/12/18 00:53:02;;;;;;;6.73;4.40;;;6.70;99.90;;;;;;5024557;28;20185;-71
2023/12/18 00:55:28;;;;;;;5.87;4.00;;;6.70;99.90;;;;;;5032782;28;20210;-72
2023/12/18 00:57:55;;;;;;;8.07;4.00;;;6.80;99.90;;;;;;5023662;28;20336;-68
2023/12/18 01:00:21;;;;;;;5.17;4.10;;;6.60;99.90;;;;;;5027351;28;20185;-69
2023/12/18 01:02:49;;;;;;;6.07;4.30;;;6.60;99.90;;;;;;5025542;28;20211;-71
2023/12/18 01:05:17;;;;;;;5.97;4.17;;;6.60;99.90;;;;;;5032289;28;20220;-72
2023/12/18 01:07:42;;;;;;;7.47;4.30;;;6.60;99.90;;;;;;5022646;28;20360;-72
2023/12/18 01:10:09;;;;;;;6.70;4.47;;;6.60;99.90;;;;;;5031695;28;20267;-72
2023/12/18 01:12:34;;;;;;;5.87;4.27;;;6.50;99.90;;;;;;5030420;28;20178;-70
2023/12/18 01:15:00;;;;;;;6.97;4.60;;;6.50;99.90;;;;;;5024967;28;20202;-70
2023/12/18 01:17:26;;;;;;;7.07;4.53;;;6.50;99.90;;;;;;5022047;28;20296;-70
2023/12/18 01:19:54;;;;;;;6.17;3.97;;;6.40;99.90;;;;;;5033672;28;20182;-72
2023/12/18 01:22:21;;;;;;;5.47;3.87;;;6.40;99.90;;;;;;5033226;28;20206;-71
2023/12/18 01:24:47;;;;;;;7.80;4.40;;;6.40;99.90;;;;;;5033175;28;20197;-72
2023/12/18 01:27:12;;;;;;;7.30;4.20;;;6.40;99.90;;;;;;5031046;28;20182;-71
2023/12/18 01:29:40;;;;;;;8.23;4.33;;;6.30;99.90;;;;;;5024122;28;20318;-71
2023/12/18 01:32:08;;;;;;;8.33;4.50;;;6.30;99.90;;;;;;5025027;28;20250;-72
2023/12/18 01:34:36;;;;;;;7.37;4.30;;;6.20;99.90;;;;;;5030069;28;20212;-72
2023/12/18 01:37:03;;;;;;;5.60;3.97;;;6.20;99.90;;;;;;5031860;28;20189;-72
2023/12/18 01:39:30;;;;;;;7.33;4.00;;;6.20;99.90;;;;;;5032366;28;20186;-71
2023/12/18 01:41:55;;;;;;;7.10;4.30;;;6.20;99.90;;;;;;5032602;28;20213;-71
2023/12/18 01:44:21;;;;;;;4.67;3.90;;;6.10;99.90;;;;;;5033866;28;20197;-71
2023/12/18 01:46:46;;;;;;;6.33;4.23;;;6.10;99.90;;;;;;5033218;28;20317;-71
2023/12/18 01:49:14;;;;;;;7.07;4.53;;;6.10;99.90;;;;;;5028911;28;20229;-69
2023/12/18 01:51:42;;;;;;;5.93;4.30;;;6.10;99.90;;;;;;5030349;28;20183;-70
2023/12/18 01:54:10;;;;;;;5.70;4.07;;;6.00;99.90;;;;;;5035282;28;20196;-72
2023/12/18 01:56:39;;;;;;;6.60;4.27;;;6.00;99.90;;;;;;5033990;28;20248;-71
2023/12/18 01:59:06;;;;;;;6.00;4.37;;;6.00;99.90;;;;;;5028072;28;20194;-71
2023/12/18 02:01:39;;;;;;;7.07;4.90;;;6.00;99.90;;;;;;5022213;28;20281;-71
2023/12/18 02:04:07;;;;;;;5.80;4.20;;;6.00;99.90;;;;;;5031680;28;20201;-71
2023/12/18 02:06:36;;;;;;;6.57;4.13;;;5.90;99.90;;;;;;5031378;28;20178;-71
2023/12/18 02:09:02;;;;;;;8.23;4.37;;;5.90;99.90;;;;;;5030723;28;20280;-71
2023/12/18 02:11:28;;;;;;;5.10;4.20;;;5.90;99.90;;;;;;5029827;28;20187;-71
2023/12/18 02:13:56;;;;;;;6.63;4.73;;;5.80;99.90;;;;;;5026336;28;20284;-71
2023/12/18 02:16:24;;;;;;;9.37;5.50;;;5.90;99.90;;;;;;5031033;28;20190;-71
2023/12/18 02:18:54;;;;;;;8.23;4.97;;;5.90;99.90;;;;;;5034114;28;20186;-71
2023/12/18 02:21:21;;;;;;;6.93;4.87;;;5.80;99.90;;;;;;5032978;28;20202;-69
2023/12/18 02:23:48;;;;;;;7.77;4.73;;;5.90;99.90;;;;;;5032143;28;20170;-72
2023/12/18 02:26:15;;;;;;;8.73;4.50;;;5.80;99.90;;;;;;5033833;28;20189;-72
2023/12/18 02:28:42;;;;;;;9.30;4.40;;;5.80;99.90;;;;;;5032598;28;20178;-70
2023/12/18 02:31:15;;;;;;;7.57;4.13;;;5.80;99.90;;;;;;5029916;28;20190;-69
2023/12/18 02:33:41;;;;;;;8.50;4.50;;;5.80;99.90;;;;;;5030778;28;20211;-71
2023/12/18 02:36:09;;;;;;;6.67;4.47;;;5.80;99.90;;;;;;5032500;28;20174;-71
2023/12/18 02:38:37;;;;;;;7.13;4.83;;;5.70;99.90;;;;;;5033454;28;20174;-70
2023/12/18 02:41:05;;;;;;;6.43;4.50;;;5.70;99.90;;;;;;5024825;28;20229;-71
2023/12/18 02:43:31;;;;;;;6.27;4.67;;;5.70;99.90;;;;;;5030608;28;20182;-70
2023/12/18 02:45:59;;;;;;;7.87;5.07;;;5.60;99.90;;;;;;5028331;28;20206;-70
2023/12/18 02:48:26;;;;;;;9.83;4.63;;;5.60;99.90;;;;;;5024262;28;20328;-71
2023/12/18 02:50:52;;;;;;;7.83;4.87;;;5.50;99.90;;;;;;5033651;28;20330;-70
2023/12/18 02:53:17;;;;;;;6.40;4.63;;;5.50;99.90;;;;;;5030379;28;20217;-71
2023/12/18 02:55:45;;;;;;;9.23;5.77;;;5.50;99.90;;;;;;5024649;28;20192;-70
2023/12/18 02:58:14;;;;;;;10.67;5.23;;;5.50;99.90;;;;;;5032089;28;20287;-71
2023/12/18 03:00:39;;;;;;;10.07;5.30;;;5.50;99.90;;;;;;5046309;28;20225;-71
2023/12/18 03:03:07;;;;;;;6.97;5.03;;;5.40;99.90;;;;;;5017462;28;20182;-70
2023/12/18 03:05:35;;;;;;;5.93;4.57;;;5.50;99.90;;;;;;5028128;28;20197;-71
2023/12/18 03:08:00;;;;;;;8.57;5.10;;;5.40;99.90;;;;;;5030727;28;20261;-69
2023/12/18 03:10:26;;;;;;;6.90;4.93;;;5.50;99.90;;;;;;5028877;28;20238;-71
2023/12/18 03:12:56;;;;;;;7.77;5.53;;;5.30;99.90;;;;;;5032893;28;20202;-68
2023/12/18 03:15:22;;;;;;;8.97;5.00;;;5.30;99.90;;;;;;5019767;28;20176;-71
2023/12/18 03:17:52;;;;;;;7.73;5.13;;;5.30;99.90;;;;;;5032254;28;20200;-71
2023/12/18 03:20:20;;;;;;;6.87;5.23;;;5.40;99.90;;;;;;5028468;28;20289;-70
2023/12/18 03:22:46;;;;;;;7.97;4.80;;;5.30;99.90;;;;;;5033018;28;20174;-71
2023/12/18 03:25:14;;;;;;;7.57;5.17;;;5.30;99.90;;;;;;5031303;28;20204;-71
2023/12/18 03:27:40;;;;;;;6.97;4.73;;;5.30;99.90;;;;;;5033296;28;20201;-72
2023/12/18 03:30:08;;;;;;;8.13;4.83;;;5.30;99.90;;;;;;5018552;28;20171;-71
2023/12/18 03:32:38;;;;;;;7.60;4.77;;;5.30;99.90;;;;;;5027928;28;20198;-69
2023/12/18 03:35:04;;;;;;;7.13;4.73;;;5.30;99.90;;;;;;5027111;28;20196;-70
2023/12/18 03:37:30;;;;;;;7.53;5.10;;;5.30;99.90;;;;;;5035754;28;20174;-65
2023/12/18 03:39:58;;;;;;;7.33;4.80;;;5.20;99.90;;;;;;5027203;28;20203;-66
2023/12/18 03:42:26;;;;;;;8.00;5.10;;;5.20;99.90;;;;;;5032431;28;20189;-70
2023/12/18 03:44:52;;;;;;;7.57;4.47;;;5.20;99.90;;;;;;5030077;28;20262;-70
2023/12/18 03:47:17;;;;;;;7.93;4.60;;;5.20;99.90;;;;;;5025517;28;21886;-71
2023/12/18 03:49:45;;;;;;;6.10;4.20;;;5.20;99.90;;;;;;5035223;28;20185;-73
2023/12/18 03:52:13;;;;;;;6.03;4.20;;;5.20;99.90;;;;;;5035600;28;20185;-71
2023/12/18 03:54:38;;;;;;;8.57;4.30;;;5.20;99.90;;;;;;5033642;28;20260;-71
2023/12/18 03:57:04;;;;;;;6.80;4.00;;;5.20;99.90;;;;;;5034636;28;20273;-68
2023/12/18 03:59:34;;;;;;;7.00;4.00;;;5.20;99.90;;;;;;5033537;28;20460;-69
2023/12/18 04:02:00;;;;;;;6.47;3.97;;;5.20;99.90;;;;;;5030698;28;20186;-69
2023/12/18 04:04:31;;;;;;;6.30;4.27;;;5.20;99.90;;;;;;5025214;28;20191;-70
2023/12/18 04:06:56;;;;;;;5.93;4.13;;;5.20;99.90;;;;;;5021210;28;20177;-72
2023/12/18 04:09:22;;;;;;;7.27;4.23;;;5.20;99.90;;;;;;5036115;28;20247;-70
2023/12/18 04:11:50;;;;;;;6.23;4.53;;;5.20;99.90;;;;;;5035715;28;20198;-72
2023/12/18 04:14:16;;;;;;;5.87;3.87;;;5.10;99.90;;;;;;5027164;28;20204;-72
2023/12/18 04:16:43;;;;;;;5.67;4.13;;;5.10;99.90;;;;;;5035571;28;20193;-71
2023/12/18 04:19:11;;;;;;;6.70;4.13;;;5.10;99.90;;;;;;5032033;28;20233;-70
2023/12/18 04:21:37;;;;;;;7.00;4.17;;;5.10;99.90;;;;;;5033433;28;20192;-68
2023/12/18 04:24:05;;;;;;;7.50;4.30;;;5.10;99.90;;;;;;5036370;28;20197;-72
2023/12/18 04:26:31;;;;;;;6.47;4.60;;;5.10;99.90;;;;;;5034256;28;20263;-71
2023/12/18 04:28:56;;;;;;;6.60;4.07;;;5.10;99.90;;;;;;5027217;28;20182;-71
2023/12/18 04:31:22;;;;;;;7.93;4.30;;;5.10;99.90;;;;;;5022834;28;20199;-70
2023/12/18 04:33:47;;;;;;;7.23;4.40;;;5.10;99.90;;;;;;5034284;28;20185;-71
2023/12/18 04:36:15;;;;;;;8.50;5.03;;;5.00;99.90;;;;;;5025947;28;20182;-67
2023/12/18 04:38:45;;;;;;;8.93;4.97;;;5.00;99.90;;;;;;5028193;28;20212;-67
2023/12/18 04:41:22;;;;;;;12.70;8.63;;;5.00;99.90;;;;;;5025329;28;20258;-69
2023/12/18 04:43:48;;;;;;;10.47;5.90;;;5.00;99.90;;;;;;5029238;28;20170;-71
2023/12/18 04:46:14;;;;;;;7.77;4.97;;;5.00;99.90;;;;;;5031863;28;20281;-62
2023/12/18 04:48:41;;;;;;;7.03;5.00;;;5.00;99.90;;;;;;5020551;28;20186;-62
2023/12/18 04:51:07;;;;;;;6.57;4.87;;;5.00;99.90;;;;;;5028341;28;20225;-62
2023/12/18 04:53:36;;;;;;;7.00;4.50;;;5.10;99.90;;;;;;5037825;28;20182;-63
2023/12/18 04:56:01;;;;;;;7.57;4.67;;;5.00;99.90;;;;;;5034163;28;20432;-63
2023/12/18 04:58:35;;;;;;;6.90;4.50;;;5.00;99.90;;;;;;5028765;28;20241;-63
2023/12/18 05:01:02;;;;;;;7.83;4.37;;;5.00;99.90;;;;;;5027015;28;20192;-63
2023/12/18 05:03:28;;;;;;;8.97;6.73;;;5.00;99.90;;;;;;5031341;28;20203;-63
2023/12/18 05:05:58;;;;;;;8.20;5.10;;;5.00;99.90;;;;;;5032174;28;20201;-63
2023/12/18 05:08:23;;;;;;;6.73;4.67;;;5.00;99.90;;;;;;5031285;28;20175;-63
2023/12/18 05:10:49;;;;;;;5.73;4.33;;;5.00;99.90;;;;;;5032573;28;20185;-63
2023/12/18 05:13:15;;;;;;;7.03;4.97;;;4.90;99.90;;;;;;5026457;28;20270;-63
2023/12/18 05:15:40;;;;;;;6.80;4.57;;;4.90;99.90;;;;;;5029467;28;20184;-63
2023/12/18 05:18:08;;;;;;;7.43;4.67;;;4.90;99.90;;;;;;5032945;28;20226;-63
2023/12/18 05:20:34;;;;;;;7.80;4.17;;;4.90;99.90;;;;;;5032458;28;20191;-63
2023/12/18 05:22:59;;;;;;;7.33;4.40;;;4.90;99.90;;;;;;5025073;28;20182;-63
2023/12/18 05:25:28;;;;;;;17.70;10.10;;;4.90;99.90;;;;;;5030370;28;20296;-62
2023/12/18 05:27:53;;;;;;;8.27;6.03;;;4.90;99.90;;;;;;5033029;28;20181;-63
2023/12/18 05:30:19;;;;;;;6.93;4.70;;;4.80;99.90;;;;;;5031580;28;20244;-63
2023/12/18 05:32:44;;;;;;;6.27;4.50;;;4.80;99.90;;;;;;5033708;28;20315;-64
2023/12/18 05:35:10;;;;;;;7.33;4.77;;;4.80;99.90;;;;;;5027487;28;20183;-63
2023/12/18 05:37:40;;;;;;;6.60;4.50;;;4.80;99.90;;;;;;5033012;28;20192;-63
2023/12/18 05:40:09;;;;;;;6.50;4.13;;;4.80;99.90;;;;;;5051126;28;20182;-63
2023/12/18 05:42:34;;;;;;;7.60;4.47;;;4.80;99.90;;;;;;5033241;28;20178;-63
2023/12/18 05:45:04;;;;;;;5.70;4.13;;;4.80;99.90;;;;;;5033578;28;20218;-63
2023/12/18 05:47:30;;;;;;;7.83;4.90;;;4.80;99.90;;;;;;5030371;28;20186;-63
2023/12/18 05:49:56;;;;;;;6.03;4.73;;;4.80;99.90;;;;;;5031215;28;20269;-64
2023/12/18 05:52:21;;;;;;;7.10;4.30;;;4.70;99.90;;;;;;5032841;28;20364;-63
2023/12/18 05:54:47;;;;;;;8.17;4.77;;;4.70;99.90;;;;;;5024906;28;20190;-63
2023/12/18 05:57:16;;;;;;;6.40;4.77;;;4.60;99.90;;;;;;5033404;28;20441;-63
2023/12/18 05:59:44;;;;;;;6.33;4.40;;;4.60;99.90;;;;;;5029331;28;20185;-63
2023/12/18 06:02:10;;;;;;;7.93;5.03;;;4.60;99.90;;;;;;5038526;28;20281;-63
2023/12/18 06:04:38;;;;;;;7.90;4.60;;;4.50;99.90;;;;;;5031585;28;20210;-64
2023/12/18 06:07:06;;;;;;;9.63;5.30;;;4.50;99.90;;;;;;5031279;28;20175;-65
2023/12/18 06:09:31;;;;;;;7.00;4.37;;;4.50;99.90;;;;;;5031363;28;20182;-63
2023/12/18 06:11:57;;;;;;;6.97;4.60;;;4.50;99.90;;;;;;5033484;28;20189;-64
2023/12/18 06:14:25;;;;;;;8.17;4.70;;;4.50;99.90;;;;;;5029521;28;20182;-64
2023/12/18 06:16:50;;;;;;;6.37;4.13;;;4.50;99.90;;;;;;5034289;28;20221;-64
2023/12/18 06:19:16;;;;;;;6.67;4.30;;;4.50;99.90;;;;;;5033786;28;20185;-64
2023/12/18 06:21:42;;;;;;;6.93;4.33;;;4.40;99.90;;;;;;5032181;28;20220;-64
2023/12/18 06:24:12;;;;;;;6.80;4.17;;;4.40;99.90;;;;;;5033974;28;20178;-64
2023/12/18 06:26:38;;;;;;;6.27;4.30;;;4.40;99.90;;;;;;5022335;28;20178;-64
2023/12/18 06:29:06;;;;;;;7.70;4.30;;;4.40;99.90;;;;;;5014381;28;20245;-64
2023/12/18 06:31:32;;;;;;;5.60;4.03;;;4.40;99.90;;;;;;5027388;28;20189;-64
2023/12/18 06:34:00;;;;;;;6.27;4.50;;;4.40;99.90;;;;;;5031750;28;20198;-63
2023/12/18 06:36:26;;;;;;;7.47;4.63;;;4.40;99.90;;;;;;5033451;28;20170;-64
2023/12/18 06:38:51;;;;;;;5.97;4.40;;;4.40;99.90;;;;;;5033665;28;20181;-64
2023/12/18 06:41:22;;;;;;;5.33;4.47;;;4.40;99.90;;;;;;5031811;28;20189;-63
2023/12/18 06:43:47;;;;;;;6.07;4.47;;;4.40;99.90;;;;;;5030176;28;20177;-63
2023/12/18 06:46:13;;;;;;;7.90;4.80;;;4.40;99.90;;;;;;5013792;28;20222;-64
2023/12/18 06:48:42;;;;;;;6.40;4.57;;;4.30;99.90;;;;;;5024762;28;20170;-63
2023/12/18 06:51:10;;;;;;;5.30;4.30;;;4.30;99.90;;;;;;5028496;28;20276;-64
2023/12/18 06:53:36;;;;;;;7.33;5.00;;;4.40;99.90;;;;;;5028603;28;20197;-64
2023/12/18 06:56:04;;;;;;;6.80;4.50;;;4.30;99.90;;;;;;5032661;28;20255;-63
2023/12/18 06:58:32;;;;;;;6.13;4.70;;;4.30;99.90;;;;;;5033254;28;20206;-64
2023/12/18 07:00:58;;;;;;;8.30;5.13;;;4.20;99.90;;;;;;5025353;28;20175;-64
2023/12/18 07:03:27;;;;;;;6.90;5.13;;;4.20;99.90;;;;;;5014796;28;20182;-63
2023/12/18 07:05:57;;;;;;;6.70;4.53;;;4.30;99.90;;;;;;5030040;28;20204;-63
2023/12/18 07:08:25;;;;;;;8.03;4.80;;;4.20;99.90;;;;;;5033232;28;20179;-63
2023/12/18 07:10:51;;;;;;;6.87;5.00;;;4.30;99.90;;;;;;5032649;28;20202;-64
2023/12/18 07:13:17;;;;;;;9.30;5.07;;;4.20;99.90;;;;;;5031249;28;20204;-64
2023/12/18 07:15:43;;;;;;;7.30;4.83;;;4.20;99.90;;;;;;5036836;28;20205;-64
2023/12/18 07:18:09;;;;;;;6.07;4.50;;;4.20;99.90;;;;;;5019188;28;20282;-63
2023/12/18 07:20:34;;;;;;;6.80;4.43;;;4.20;99.90;;;;;;5026964;28;20178;-64
2023/12/18 07:23:00;;;;;;;7.07;4.60;;;4.20;99.90;;;;;;5041565;28;20201;-64
2023/12/18 07:25:28;;;;;;;8.20;5.17;;;4.20;99.90;;;;;;5038927;28;20285;-64
2023/12/18 07:27:56;;;;;;;6.77;5.03;;;4.20;99.90;;;;;;5034626;28;20194;-64
2023/12/18 07:30:24;;;;;;;6.70;5.43;;;4.10;99.90;;;;;;5030739;28;20174;-62
2023/12/18 07:32:52;;;;;;;7.50;5.73;;;4.20;99.90;;;;;;5037470;28;20170;-63
2023/12/18 07:35:18;;;;;;;9.07;5.53;;;4.20;99.90;;;;;;5035756;28;20212;-63
2023/12/18 07:37:46;;;;;;;8.83;5.77;;;4.10;99.90;;;;;;5033322;28;20274;-63
2023/12/18 07:40:14;;;;;;;8.57;5.53;;;4.10;99.90;;;;;;5035948;28;20212;-63
2023/12/18 07:42:42;;;;;;;7.73;5.53;;;4.10;99.90;;;;;;5021741;28;20197;-62
2023/12/18 07:45:10;;;;;;;7.37;5.27;;;4.20;99.90;;;;;;5018052;28;20289;-63
2023/12/18 07:47:37;;;;;;;8.07;5.63;;;4.10;99.90;;;;;;5028290;28;20174;-62
2023/12/18 07:50:06;;;;;;;7.67;5.43;;;4.10;99.90;;;;;;5036919;28;20174;-63
2023/12/18 07:52:32;;;;;;;7.47;4.73;;;4.10;99.90;;;;;;5036577;28;20205;-64
2023/12/18 07:54:58;;;;;;;7.73;5.33;;;4.10;99.90;;;;;;5019997;28;20178;-63
2023/12/18 07:57:26;;;;;;;7.80;5.77;;;4.10;99.90;;;;;;5035296;28;20197;-63
2023/12/18 07:59:54;;;;;;;7.60;5.33;;;4.10;99.90;;;;;;5022821;28;20202;-64
2023/12/18 08:02:19;;;;;;;8.40;6.70;;;4.00;99.90;;;;;;5034233;28;20232;-63
2023/12/18 08:04:50;;;;;;;9.70;6.33;;;4.10;99.90;;;;;;5034256;28;20209;-62
2023/12/18 08:07:16;;;;;;;9.03;6.13;;;4.00;99.90;;;;;;5035736;28;20166;-63
2023/12/18 08:09:42;;;;;;;9.30;6.03;;;4.10;99.90;;;;;;5035641;28;20189;-63
2023/12/18 08:12:07;;;;;;;8.20;5.90;;;4.10;99.90;;;;;;5041185;28;20189;-63
2023/12/18 08:14:33;;;;;;;8.07;5.50;;;4.10;99.90;;;;;;5030692;28;20200;-63
2023/12/18 08:17:01;;;;;;;8.47;6.10;;;4.10;99.90;;;;;;5036015;28;20197;-63
2023/12/18 08:19:26;;;;;;;7.57;5.13;;;4.10;99.90;;;;;;5034933;28;20197;-63
2023/12/18 08:21:52;;;;;;;6.97;5.40;;;4.10;99.90;;;;;;5020231;28;20174;-63
2023/12/18 08:24:18;;;;;;;8.00;5.43;;;4.20;99.90;;;;;;5026241;28;20201;-63
2023/12/18 08:26:49;;;;;;;9.87;5.47;;;4.20;99.90;;;;;;5035181;28;20181;-63
2023/12/18 08:29:15;;;;;;;8.60;5.40;;;4.20;99.90;;;;;;5019498;28;20290;-63
2023/12/18 08:31:42;;;;;;;7.73;5.07;;;4.30;99.90;;;;;;5015426;28;20206;-63
2023/12/18 08:34:08;;;;;;;10.47;6.00;;;4.20;99.90;;;;;;5015611;28;20198;-63
2023/12/18 08:36:34;;;;;;;6.97;5.50;;;4.30;99.90;;;;;;5018140;28;20175;-63
2023/12/18 08:39:03;;;;;;;6.33;4.97;;;4.30;99.90;;;;;;5028549;28;20178;-63
2023/12/18 08:41:31;;;;;;;7.67;5.30;;;4.30;99.90;;;;;;5034217;28;20275;-63
2023/12/18 08:43:57;;;;;;;8.03;5.60;;;4.30;99.90;;;;;;5034931;28;20186;-63
2023/12/18 08:46:24;;;;;;;8.70;6.07;;;4.30;99.90;;;;;;5033823;28;20198;-63
2023/12/18 08:48:52;;;;;;;8.20;5.73;;;4.30;99.90;;;;;;5035007;28;20209;-63
2023/12/18 08:51:18;;;;;;;8.03;5.43;;;4.40;99.90;;;;;;5020974;28;20201;-63
2023/12/18 08:53:44;;;;;;;9.33;6.33;;;4.50;99.90;;;;;;5034284;28;20179;-63
2023/12/18 08:56:12;;;;;;;8.63;5.90;;;4.50;99.90;;;;;;5016542;28;20422;-63
2023/12/18 08:58:41;;;;;;;8.03;5.63;;;4.50;99.90;;;;;;5020556;28;20175;-63
2023/12/18 09:01:06;;;;;;;9.33;5.77;;;4.50;99.90;;;;;;5015465;28;20181;-63
2023/12/18 09:03:35;;;;;;;9.80;5.80;;;4.60;99.90;;;;;;5020998;28;20202;-63
2023/12/18 09:06:02;;;;;;;8.87;6.20;;;4.60;99.90;;;;;;5014780;28;20204;-63
2023/12/18 09:08:28;;;;;;;8.30;6.40;;;4.60;99.90;;;;;;5028232;28;20208;-63
2023/12/18 09:10:59;;;;;;;8.03;5.93;;;4.70;99.90;;;;;;5034309;28;20280;-63
2023/12/18 09:13:24;;;;;;;7.97;5.80;;;4.80;99.90;;;;;;5034903;28;20198;-63
2023/12/18 09:15:50;;;;;;;8.70;6.33;;;4.90;99.90;;;;;;5035006;28;20240;-63
2023/12/18 09:18:18;;;;;;;7.90;5.97;;;5.10;99.90;;;;;;5042574;28;20263;-63
2023/12/18 09:20:46;;;;;;;10.20;6.60;;;5.30;99.90;;;;;;5034460;28;20178;-63
2023/12/18 09:23:12;;;;;;;9.03;6.77;;;5.60;99.90;;;;;;5023945;28;20190;-63
2023/12/18 09:25:42;;;;;;;11.10;6.70;;;5.80;99.90;;;;;;5034674;28;20236;-62
2023/12/18 09:28:08;;;;;;;8.60;6.37;;;6.10;99.90;;;;;;5034260;28;20193;-63
2023/12/18 09:30:33;;;;;;;7.77;6.40;;;6.30;99.90;;;;;;5032241;28;20225;-63
2023/12/18 09:32:59;;;;;;;11.00;6.70;;;6.50;99.90;;;;;;5016669;28;20205;-62
2023/12/18 09:35:25;;;;;;;6.70;5.53;;;6.60;99.90;;;;;;5026933;28;20233;-63
2023/12/18 09:37:50;;;;;;;8.43;6.27;;;6.90;99.90;;;;;;5014580;28;20183;-63
2023/12/18 09:40:16;;;;;;;9.27;6.27;;;7.10;99.90;;;;;;5014523;28;20174;-64
2023/12/18 09:42:50;;;;;;;8.40;6.60;;;7.30;99.90;;;;;;5022131;28;20174;-63
2023/12/18 09:45:22;;;;;;;7.50;6.37;;;7.40;99.90;;;;;;5031239;28;20190;-64
2023/12/18 09:47:51;;;;;;;9.20;6.70;;;7.60;99.90;;;;;;5030250;28;20191;-62
2023/12/18 09:50:17;;;;;;;9.30;6.83;;;7.70;99.90;;;;;;5014346;28;20199;-63
2023/12/18 09:52:57;;;;;;;9.30;6.30;;;7.80;99.90;;;;;;5018006;28;20233;-63
2023/12/18 09:55:23;;;;;;;7.20;5.70;;;7.90;99.90;;;;;;5033565;28;20169;-63
2023/12/18 09:57:51;;;;;;;7.60;6.17;;;8.00;99.90;;;;;;5033202;28;20309;-63
2023/12/18 10:00:20;;;;;;;7.90;5.77;;;8.00;99.90;;;;;;5024270;28;20178;-63
2023/12/18 10:02:48;;;;;;;8.17;6.27;;;8.10;99.90;;;;;;5019446;28;20206;-63
2023/12/18 10:05:14;;;;;;;8.07;6.40;;;8.10;99.90;;;;;;5032237;28;20229;-63
2023/12/18 10:07:40;;;;;;;8.33;6.40;;;8.20;99.90;;;;;;5032595;28;20205;-63
2023/12/18 10:10:08;;;;;;;8.63;7.03;;;8.30;99.90;;;;;;5033602;28;20217;-63
2023/12/18 10:12:38;;;;;;;8.10;6.80;;;8.30;99.90;;;;;;5033385;28;20170;-63
2023/12/18 10:15:07;;;;;;;8.90;6.60;;;8.40;99.90;;;;;;5032743;28;20292;-63
2023/12/18 10:17:38;;;;;;;10.60;6.47;;;8.40;99.90;;;;;;5027996;28;20201;-64
2023/12/18 10:20:10;;;;;;;10.13;7.47;;;8.50;99.90;;;;;;5035176;28;20233;-63
2023/12/18 10:22:38;;;;;;;8.33;6.67;;;8.60;99.90;;;;;;5033576;28;20187;-63
2023/12/18 10:25:07;;;;;;;8.37;7.07;;;8.60;99.90;;;;;;5031759;28;20189;-64
2023/12/18 10:27:33;;;;;;;10.30;7.28;;;8.60;99.90;;;;;;5023404;28;20204;-63
2023/12/18 10:30:02;;;;;;;9.33;7.23;;;8.80;99.90;;;;;;5030284;28;20191;-63
2023/12/18 10:32:27;;;;;;;10.45;7.43;;;8.80;99.90;;;;;;5028975;28;20194;-63
2023/12/18 10:34:55;;;;;;;7.35;6.22;;;9.00;99.90;;;;;;5033478;28;20174;-63
2023/12/18 10:37:25;;;;;;;9.15;6.60;;;9.10;99.90;;;;;;5032760;28;20213;-63
2023/12/18 10:39:53;;;;;;;8.18;6.60;;;9.20;99.90;;;;;;5029197;28;20182;-63
2023/12/18 10:42:33;;;;;;;9.52;6.00;;;9.30;99.90;;;;;;5013535;28;20225;-63
2023/12/18 10:45:01;;;;;;;7.78;6.22;;;9.40;99.90;;;;;;5033365;28;20197;-63
2023/12/18 10:47:30;;;;;;;9.13;6.38;;;9.40;99.90;;;;;;5037225;28;20186;-63
2023/12/18 10:49:59;;;;;;;7.85;6.10;;;9.40;99.90;;;;;;5021245;28;20170;-64
2023/12/18 10:52:28;;;;;;;8.18;6.10;;;9.50;99.90;;;;;;5036809;28;20204;-63
2023/12/18 10:54:57;;;;;;;7.82;6.38;;;9.60;99.90;;;;;;5037383;28;20224;-63
2023/12/18 10:57:24;;;;;;;7.72;6.38;;;9.60;99.90;;;;;;5037459;28;20186;-63
2023/12/18 10:59:50;;;;;;;7.82;6.03;;;9.80;99.90;;;;;;5022275;28;20387;-63
2023/12/18 11:02:17;;;;;;;7.38;5.97;;;9.80;99.90;;;;;;5017370;28;20198;-63
2023/12/18 11:04:47;;;;;;;6.95;5.68;;;9.80;99.90;;;;;;5056518;28;20231;-63
2023/12/18 11:07:17;;;;;;;8.38;5.60;;;9.90;99.90;;;;;;5043675;28;20312;-63
2023/12/18 11:09:52;;;;;;;9.18;5.82;;;9.90;99.90;;;;;;5028300;28;20280;-63
2023/12/18 11:12:23;;;;;;;7.97;5.85;;;10.00;99.90;;;;;;5030934;28;20243;-63
2023/12/18 11:15:26;;;;;;;8.13;5.95;;;10.00;99.90;;;;;;5025981;28;20236;-63
2023/12/18 11:17:56;;;;;;;6.88;5.38;;;10.20;99.90;;;;;;5017290;28;20317;-63
2023/12/18 11:20:34;;;;;;;7.68;5.63;;;10.40;99.90;;;;;;5021649;28;20189;-63
2023/12/18 11:23:01;;;;;;;7.13;5.30;;;10.60;99.90;;;;;;5036921;28;20181;-62
2023/12/18 11:25:38;;;;;;;7.32;5.70;;;10.80;99.90;;;;;;5036778;28;20193;-63
2023/12/18 11:28:07;;;;;;;7.38;5.32;;;11.10;99.90;;;;;;5033259;28;20210;-64
2023/12/18 11:30:42;;;;;;;6.47;5.45;;;11.30;99.90;;;;;;5037638;28;20176;-63
2023/12/18 11:33:14;;;;;;;8.73;5.78;;;11.50;99.90;;;;;;5036251;28;20217;-64
2023/12/18 11:35:45;;;;;;;7.60;5.10;;;11.80;99.90;;;;;;5022221;28;20470;-63
2023/12/18 11:38:24;;;;;;;7.03;5.63;;;12.00;99.90;;;;;;5032933;28;20240;-64
2023/12/18 11:40:56;;;;;;;7.43;5.10;;;12.30;99.90;;;;;;5025345;28;20174;-63
2023/12/18 11:43:55;;;;;;;6.97;4.90;;;12.50;99.90;;;;;;5017382;28;20261;-63
2023/12/18 11:46:25;;;;;;;6.60;5.13;;;12.70;99.90;;;;;;5002120;28;20226;-62
2023/12/18 11:48:51;;;;;;;7.85;5.72;;;12.80;99.90;;;;;;5021123;28;20183;-63
2023/12/18 11:51:21;;;;;;;7.68;4.97;;;13.00;99.90;;;;;;5032684;28;20175;-63
2023/12/18 11:53:57;;;;;;;5.43;4.60;;;13.10;99.90;;;;;;5016446;28;20171;-63
2023/12/18 11:56:27;;;;;;;5.88;4.75;;;13.20;99.90;;;;;;5018367;28;20426;-63
2023/12/18 11:58:55;;;;;;;5.68;4.90;;;13.40;99.90;;;;;;5036124;28;20182;-64
2023/12/18 12:01:21;;;;;;;6.53;5.20;;;13.50;99.90;;;;;;5035871;28;20206;-63
2023/12/18 12:03:50;;;;;;;5.85;4.60;;;13.70;99.90;;;;;;5036120;28;20204;-64
2023/12/18 12:06:16;;;;;;;7.13;5.00;;;13.70;99.90;;;;;;5031157;28;20200;-64
2023/12/18 12:08:43;;;;;;;6.65;4.53;;;13.90;99.90;;;;;;5055775;28;20173;-64
2023/12/18 12:11:12;;;;;;;5.43;4.55;;;13.90;99.90;;;;;;5038259;28;20180;-64
2023/12/18 12:13:37;;;;;;;5.78;4.55;;;14.00;99.90;;;;;;5035870;28;20170;-64
2023/12/18 12:16:03;;;;;;;6.13;4.78;;;14.00;99.90;;;;;;5035623;28;20235;-64
2023/12/18 12:18:31;;;;;;;7.22;5.00;;;14.10;99.90;;;;;;5024067;28;20187;-64
2023/12/18 12:21:00;;;;;;;6.00;4.43;;;14.10;99.90;;;;;;5015836;28;20218;-65
2023/12/18 12:23:29;;;;;;;6.15;4.75;;;14.20;99.90;;;;;;5031081;28;20226;-65
2023/12/18 12:26:01;;;;;;;5.55;4.63;;;14.20;99.90;;;;;;5017210;28;20198;-64
2023/12/18 12:28:30;;;;;;;7.10;4.65;;;14.30;99.90;;;;;;5035345;28;20280;-64
2023/12/18 12:30:57;;;;;;;4.78;4.18;;;14.30;99.90;;;;;;5035704;28;20181;-64
2023/12/18 12:33:22;;;;;;;5.07;4.15;;;14.40;99.90;;;;;;5024971;28;20538;-64
2023/12/18 12:35:48;;;;;;;5.63;4.68;;;14.40;99.90;;;;;;5023567;28;20197;-64
2023/12/18 12:38:16;;;;;;;5.47;4.30;;;14.30;99.90;;;;;;5016949;28;20206;-64
2023/12/18 12:40:44;;;;;;;5.63;4.22;;;14.30;99.90;;;;;;5015278;28;20206;-64
2023/12/18 12:43:11;;;;;;;5.80;4.28;;;14.20;99.90;;;;;;5015534;28;20175;-64
2023/12/18 12:45:38;;;;;;;5.25;4.45;;;14.10;99.90;;;;;;5023441;28;20206;-64
2023/12/18 12:48:08;;;;;;;4.80;3.70;;;14.00;99.90;;;;;;5021840;28;20182;-65
2023/12/18 12:50:42;;;;;;;5.25;4.30;;;13.90;99.90;;;;;;5035312;28;20225;-64
2023/12/18 12:53:10;;;;;;;4.78;3.88;;;13.80;99.90;;;;;;5034983;28;20186;-64
2023/12/18 12:55:37;;;;;;;5.15;4.18;;;13.80;99.90;;;;;;5031598;28;20253;-71
2023/12/18 12:58:03;;;;;;;4.75;4.00;;;13.60;99.90;;;;;;5034521;28;20210;-70